Time;durP1;ratioP1;P1;durP2;ratioP2;P2;SDS_P1;SDS_P2;PMS_P1;PMS_P2;Temp;Humidity;BMP_temperature;BMP_pressure;BME280_temperature;BME280_humidity;BME280_pressure;Samples;Min_cycle;Max_cycle;Signal;HPM_P1;HPM_P2
2022/03/18 00:00:16;;;;;;;5.85;3.47;;;25.30;46.90;;;;;;6145229;23;20010;-70
2022/03/18 00:02:43;;;;;;;10.63;4.60;;;25.20;46.90;;;;;;6145939;23;20005;-70
2022/03/18 00:05:11;;;;;;;7.95;3.05;;;25.20;47.00;;;;;;6145954;23;20369;-70
2022/03/18 00:07:38;;;;;;;8.73;3.45;;;25.20;47.10;;;;;;6144911;23;20416;-70
2022/03/18 00:10:07;;;;;;;4.78;2.72;;;25.20;47.20;;;;;;6146422;23;20009;-70
2022/03/18 00:12:34;;;;;;;5.45;3.25;;;25.20;47.40;;;;;;6144757;23;20152;-70
2022/03/18 00:15:00;;;;;;;5.43;2.90;;;25.20;47.30;;;;;;6146255;23;20397;-70
2022/03/18 00:17:26;;;;;;;3.60;2.63;;;25.20;47.30;;;;;;6145003;23;20029;-70
2022/03/18 00:19:53;;;;;;;4.80;2.53;;;25.20;47.30;;;;;;6145778;23;20041;-70
2022/03/18 00:22:19;;;;;;;3.90;2.70;;;25.10;47.30;;;;;;6145740;23;20009;-70
2022/03/18 00:24:46;;;;;;;4.07;3.15;;;25.10;47.30;;;;;;6145705;23;20006;-70
2022/03/18 00:27:12;;;;;;;4.55;2.50;;;25.10;47.30;;;;;;6146088;23;20743;-70
2022/03/18 00:29:39;;;;;;;9.88;2.83;;;25.10;47.40;;;;;;6145198;23;20025;-70
2022/03/18 00:32:06;;;;;;;5.63;2.80;;;25.10;47.40;;;;;;6146084;23;20614;-70
2022/03/18 00:34:32;;;;;;;4.40;2.83;;;25.10;47.50;;;;;;6144728;23;20068;-69
2022/03/18 00:36:59;;;;;;;7.80;2.83;;;25.10;47.60;;;;;;6145866;23;20329;-70
2022/03/18 00:39:25;;;;;;;4.13;2.10;;;25.10;47.70;;;;;;6145606;23;20013;-70
2022/03/18 00:41:52;;;;;;;5.55;2.95;;;25.10;47.80;;;;;;6146024;23;20013;-70
2022/03/18 00:44:19;;;;;;;3.72;1.90;;;25.10;47.90;;;;;;6146012;23;20012;-70
2022/03/18 00:46:45;;;;;;;7.80;3.40;;;25.10;48.00;;;;;;6144467;23;20067;-70
2022/03/18 00:52:05;;;;;;;10.40;2.80;;;25.00;48.10;;;;;;6144616;23;20012;-69
2022/03/18 00:54:46;;;;;;;5.95;2.25;;;25.00;48.20;;;;;;6145154;23;20665;-70
2022/03/18 00:57:13;;;;;;;5.60;2.40;;;25.00;48.20;;;;;;6145927;23;20002;-70
2022/03/18 00:59:39;;;;;;;5.38;2.40;;;25.00;48.10;;;;;;6144759;23;20040;-70
2022/03/18 01:02:06;;;;;;;7.78;3.10;;;25.00;48.10;;;;;;6146315;23;20005;-70
2022/03/18 01:04:32;;;;;;;4.82;2.45;;;25.00;48.10;;;;;;6144328;23;20080;-69
2022/03/18 01:06:59;;;;;;;20.05;3.53;;;24.90;48.00;;;;;;6145597;23;20036;-70
2022/03/18 01:09:26;;;;;;;14.23;2.80;;;24.90;48.20;;;;;;6144494;23;20088;-70
2022/03/18 01:11:54;;;;;;;7.38;3.13;;;25.00;48.40;;;;;;6145976;23;19993;-69
2022/03/18 01:14:21;;;;;;;7.82;2.72;;;24.90;48.50;;;;;;6145385;23;20425;-69
2022/03/18 01:16:48;;;;;;;12.32;3.58;;;25.00;48.70;;;;;;6144521;23;20006;-69
2022/03/18 01:19:14;;;;;;;4.57;2.75;;;24.90;48.70;;;;;;6146231;23;20006;-69
2022/03/18 01:21:43;;;;;;;6.63;2.90;;;25.00;49.00;;;;;;6144336;23;20010;-70
2022/03/18 01:24:10;;;;;;;9.70;3.90;;;24.90;49.20;;;;;;6145422;23;20035;-70
2022/03/18 01:26:37;;;;;;;7.18;4.00;;;24.90;49.50;;;;;;6144512;23;20005;-70
2022/03/18 01:29:04;;;;;;;17.70;5.63;;;24.90;49.80;;;;;;6146908;23;20001;-69
2022/03/18 01:31:31;;;;;;;8.45;5.10;;;24.90;50.10;;;;;;6146351;23;20062;-70
2022/03/18 01:33:57;;;;;;;16.35;5.18;;;24.80;50.20;;;;;;6146669;23;20005;-69
2022/03/18 01:36:25;;;;;;;9.20;4.43;;;24.80;50.40;;;;;;6147149;23;20336;-70
2022/03/18 01:38:51;;;;;;;14.15;5.38;;;24.80;50.60;;;;;;6145952;23;20383;-70
2022/03/18 01:41:18;;;;;;;30.30;6.32;;;24.80;50.70;;;;;;6147047;23;20052;-70
2022/03/18 01:43:46;;;;;;;13.32;5.45;;;24.80;50.90;;;;;;6145744;23;20067;-69
2022/03/18 01:46:17;;;;;;;14.82;5.97;;;24.70;51.10;;;;;;6147338;23;20018;-70
2022/03/18 01:48:44;;;;;;;13.35;5.68;;;24.70;51.30;;;;;;6146048;23;20509;-70
2022/03/18 01:51:15;;;;;;;8.35;5.78;;;24.70;51.40;;;;;;6146429;23;20001;-70
2022/03/18 01:53:44;;;;;;;13.90;5.05;;;24.70;51.40;;;;;;6147451;23;20021;-70
2022/03/18 01:56:11;;;;;;;11.77;4.90;;;24.70;51.40;;;;;;6145812;23;20006;-70
2022/03/18 01:58:37;;;;;;;9.18;4.90;;;24.60;51.40;;;;;;6147641;23;20032;-70
2022/03/18 02:01:04;;;;;;;14.98;7.15;;;24.60;51.40;;;;;;6145295;23;20013;-70
2022/03/18 02:03:30;;;;;;;14.90;6.10;;;24.60;51.70;;;;;;6146898;23;20100;-70
2022/03/18 02:05:57;;;;;;;12.35;4.13;;;24.50;51.80;;;;;;6145924;23;20051;-71
2022/03/18 02:08:24;;;;;;;11.35;5.20;;;24.50;51.80;;;;;;6146359;23;20008;-70
2022/03/18 02:10:50;;;;;;;12.90;5.20;;;24.50;51.80;;;;;;6146898;23;20004;-71
2022/03/18 02:13:18;;;;;;;8.63;4.40;;;24.50;51.90;;;;;;6145617;23;20015;-70
2022/03/18 02:15:44;;;;;;;9.13;4.63;;;24.50;51.90;;;;;;6146683;23;20523;-70
2022/03/18 02:18:11;;;;;;;9.15;3.90;;;24.40;51.80;;;;;;6145781;23;20756;-70
2022/03/18 02:20:37;;;;;;;7.82;3.40;;;24.40;51.70;;;;;;6146313;23;20013;-70
2022/03/18 02:23:04;;;;;;;10.18;3.28;;;24.40;51.20;;;;;;6145339;23;19993;-70
2022/03/18 02:25:31;;;;;;;7.28;3.47;;;24.40;50.80;;;;;;6146495;23;20436;-70
2022/03/18 02:27:59;;;;;;;5.85;2.47;;;24.40;50.50;;;;;;6146396;23;20009;-70
2022/03/18 02:30:28;;;;;;;5.82;2.28;;;24.40;50.20;;;;;;6145562;23;20039;-70
2022/03/18 02:32:55;;;;;;;21.33;3.47;;;24.40;50.00;;;;;;6146761;23;20072;-71
2022/03/18 02:35:22;;;;;;;18.88;3.47;;;24.40;50.10;;;;;;6145655;23;20013;-70
2022/03/18 02:37:49;;;;;;;21.30;2.83;;;24.40;50.20;;;;;;6146004;23;19994;-70
2022/03/18 02:40:15;;;;;;;14.88;3.60;;;24.40;50.10;;;;;;6145260;23;20021;-70
2022/03/18 02:42:44;;;;;;;20.23;3.55;;;24.40;50.60;;;;;;6147027;23;20008;-70
2022/03/18 02:45:11;;;;;;;16.60;4.78;;;24.40;50.70;;;;;;6146678;23;20033;-69
2022/03/18 02:47:38;;;;;;;15.55;4.90;;;24.40;50.60;;;;;;6145674;23;20021;-70
2022/03/18 02:50:06;;;;;;;15.73;4.88;;;24.40;50.60;;;;;;6146637;23;20008;-70
2022/03/18 02:52:34;;;;;;;12.70;4.78;;;24.40;50.90;;;;;;6145661;23;20006;-70
2022/03/18 02:55:01;;;;;;;12.05;5.63;;;24.30;51.10;;;;;;6146698;23;20127;-70
2022/03/18 02:57:27;;;;;;;11.73;6.85;;;24.30;51.30;;;;;;6145322;23;20001;-70
2022/03/18 02:59:54;;;;;;;13.60;5.90;;;24.30;51.60;;;;;;6146567;23;20080;-70
2022/03/18 03:02:20;;;;;;;17.27;7.00;;;24.30;51.80;;;;;;6145745;23;20008;-70
2022/03/18 03:10:16;;;;;;;17.55;6.90;;;24.20;52.20;;;;;;6145990;23;20532;-70
2022/03/18 03:12:43;;;;;;;15.82;6.25;;;24.20;52.30;;;;;;6146299;23;20123;-70
2022/03/18 03:15:10;;;;;;;18.73;6.57;;;24.20;52.50;;;;;;6145645;23;20001;-70
2022/03/18 03:17:36;;;;;;;14.40;4.90;;;24.10;52.50;;;;;;6146357;23;20077;-70
2022/03/18 03:20:03;;;;;;;13.10;5.20;;;24.10;52.60;;;;;;6146675;23;19998;-70
2022/03/18 03:22:30;;;;;;;12.32;4.72;;;24.10;52.80;;;;;;6145055;23;20006;-70
2022/03/18 03:24:57;;;;;;;12.95;4.45;;;24.10;52.90;;;;;;6147054;23;20006;-69
2022/03/18 03:27:31;;;;;;;40.58;8.27;;;24.10;53.10;;;;;;6145125;23;20084;-70
2022/03/18 03:30:08;;;;;;;32.17;8.32;;;24.00;53.30;;;;;;6146149;23;20570;-70
2022/03/18 03:32:34;;;;;;;48.75;21.92;;;24.10;53.50;;;;;;6145875;23;20010;-71
2022/03/18 03:35:01;;;;;;;44.53;17.52;;;24.00;53.70;;;;;;6146137;23;20009;-70
2022/03/18 03:37:28;;;;;;;61.28;13.27;;;24.00;53.70;;;;;;6144637;23;20344;-69
2022/03/18 03:39:55;;;;;;;45.88;11.48;;;24.00;53.90;;;;;;6145209;23;20020;-70
2022/03/18 03:42:22;;;;;;;35.63;6.82;;;24.00;54.10;;;;;;6146978;23;20396;-70
2022/03/18 03:44:48;;;;;;;24.02;5.53;;;24.00;54.40;;;;;;6145087;23;20080;-70
2022/03/18 03:47:15;;;;;;;13.35;4.95;;;24.00;54.80;;;;;;6146069;23;20020;-70
2022/03/18 03:49:42;;;;;;;25.02;5.78;;;24.00;54.90;;;;;;6144861;23;19998;-69
2022/03/18 03:52:08;;;;;;;16.35;5.55;;;24.00;55.10;;;;;;6145960;23;20025;-70
2022/03/18 03:54:37;;;;;;;20.65;7.30;;;24.00;55.20;;;;;;6146165;23;20005;-70
2022/03/18 03:57:04;;;;;;;19.55;4.93;;;24.00;56.00;;;;;;6144709;23;20001;-70
2022/03/18 03:59:31;;;;;;;15.13;5.25;;;23.90;56.70;;;;;;6145482;23;20009;-71
2022/03/18 04:01:58;;;;;;;14.05;6.05;;;23.90;57.00;;;;;;6144770;23;20086;-70
2022/03/18 04:04:26;;;;;;;20.15;8.75;;;23.90;57.20;;;;;;6145773;23;20056;-68
2022/03/18 04:06:52;;;;;;;27.08;14.70;;;23.90;57.30;;;;;;6144303;23;19994;-70
2022/03/18 04:09:19;;;;;;;15.93;9.75;;;23.90;58.30;;;;;;6145963;23;20755;-69
2022/03/18 04:11:46;;;;;;;19.88;7.95;;;23.90;58.20;;;;;;6146136;23;20328;-69
2022/03/18 04:14:12;;;;;;;12.40;5.53;;;23.90;58.60;;;;;;6147270;23;19997;-68
2022/03/18 04:16:39;;;;;;;19.38;4.80;;;23.80;59.10;;;;;;6146184;23;20064;-69
2022/03/18 04:19:05;;;;;;;21.65;6.05;;;23.80;59.70;;;;;;6145098;23;20425;-69
2022/03/18 04:21:32;;;;;;;20.30;9.13;;;23.80;60.40;;;;;;6145415;23;20013;-72
2022/03/18 04:23:58;;;;;;;33.67;12.10;;;23.80;60.50;;;;;;6144545;23;20123;-70
2022/03/18 04:26:25;;;;;;;18.95;7.97;;;23.70;60.60;;;;;;6145792;23;20010;-70
2022/03/18 04:28:51;;;;;;;23.88;7.28;;;23.70;60.70;;;;;;6144498;23;20002;-70
2022/03/18 04:31:19;;;;;;;12.30;5.82;;;23.80;60.90;;;;;;6145390;23;19998;-73
2022/03/18 04:33:46;;;;;;;19.23;4.38;;;23.70;61.00;;;;;;6145441;23;20483;-70
2022/03/18 04:36:13;;;;;;;15.65;5.15;;;23.70;61.00;;;;;;6144275;23;20002;-70
2022/03/18 04:38:39;;;;;;;21.77;8.18;;;23.70;61.40;;;;;;6145702;23;20040;-73
2022/03/18 04:41:06;;;;;;;24.15;7.20;;;23.70;61.80;;;;;;6144224;23;20017;-72
2022/03/18 04:43:32;;;;;;;13.95;5.35;;;23.70;61.80;;;;;;6145569;23;20005;-73
2022/03/18 04:45:59;;;;;;;15.48;4.95;;;23.70;61.90;;;;;;6144663;23;20016;-72
2022/03/18 04:48:25;;;;;;;18.65;4.00;;;23.70;61.90;;;;;;6145970;23;20073;-72
2022/03/18 04:50:52;;;;;;;14.80;4.55;;;23.70;62.00;;;;;;6144150;23;20008;-71
2022/03/18 04:53:18;;;;;;;19.17;5.53;;;23.70;62.20;;;;;;6144426;23;20004;-72
2022/03/18 04:55:45;;;;;;;25.60;4.05;;;23.60;62.40;;;;;;6145803;23;20043;-71
2022/03/18 04:58:11;;;;;;;16.77;3.65;;;23.60;62.40;;;;;;6143879;23;20005;-72
2022/03/18 05:00:38;;;;;;;20.13;6.28;;;23.60;62.70;;;;;;6144983;23;20013;-71
2022/03/18 05:03:04;;;;;;;12.23;3.58;;;23.60;62.90;;;;;;6145382;23;20002;-72
2022/03/18 05:05:32;;;;;;;17.10;5.55;;;23.60;62.90;;;;;;6146991;23;20005;-72
2022/03/18 05:07:58;;;;;;;11.98;4.10;;;23.60;63.00;;;;;;6146605;23;20443;-72
2022/03/18 05:10:25;;;;;;;13.23;4.53;;;23.60;63.10;;;;;;6146391;23;20017;-71
2022/03/18 05:12:53;;;;;;;12.07;4.07;;;23.50;63.20;;;;;;6147342;23;20437;-71
2022/03/18 05:15:19;;;;;;;9.50;4.03;;;23.50;63.30;;;;;;6144495;23;20006;-71
2022/03/18 05:17:51;;;;;;;14.65;3.95;;;23.50;63.30;;;;;;6146416;23;20069;-72
2022/03/18 05:20:19;;;;;;;19.52;4.40;;;23.50;63.40;;;;;;6145441;23;20010;-71
2022/03/18 05:22:46;;;;;;;23.83;5.38;;;23.50;63.40;;;;;;6146709;23;20002;-71
2022/03/18 05:25:13;;;;;;;26.02;8.70;;;23.50;63.40;;;;;;6146411;23;20004;-71
2022/03/18 05:27:44;;;;;;;27.08;5.30;;;23.50;63.40;;;;;;6146407;23;20436;-71
2022/03/18 05:30:14;;;;;;;15.82;4.32;;;23.50;63.40;;;;;;6147160;23;20001;-71
2022/03/18 05:33:20;;;;;;;18.55;5.00;;;23.50;63.40;;;;;;6139954;22;20025;-73
2022/03/18 05:36:26;;;;;;;10.38;3.85;;;23.50;63.70;;;;;;6178047;23;20013;-74
2022/03/18 05:39:32;;;;;;;13.05;3.45;;;23.50;63.80;;;;;;6150530;23;20367;-73
2022/03/18 05:42:38;;;;;;;13.27;4.05;;;23.50;63.70;;;;;;6178523;23;20009;-74
2022/03/18 05:45:45;;;;;;;22.30;4.40;;;23.50;63.80;;;;;;6177468;22;20004;-73
2022/03/18 05:48:51;;;;;;;14.82;3.78;;;23.50;63.90;;;;;;6177863;22;20004;-74
2022/03/18 05:51:57;;;;;;;13.20;4.82;;;23.50;64.10;;;;;;6178550;23;20072;-74
2022/03/18 05:55:03;;;;;;;12.27;3.88;;;23.50;64.40;;;;;;6151831;23;20320;-73
2022/03/18 05:58:09;;;;;;;12.68;3.75;;;23.40;64.90;;;;;;6177037;23;20050;-74
2022/03/18 06:01:15;;;;;;;12.30;4.18;;;23.30;65.10;;;;;;6178002;23;20009;-74
2022/03/18 06:04:01;;;;;;;14.32;4.68;;;23.20;65.30;;;;;;6178392;23;20316;-74
2022/03/18 06:06:27;;;;;;;10.82;3.97;;;23.10;65.70;;;;;;6177196;23;20009;-74
2022/03/18 06:11:53;;;;;;;14.18;4.20;;;23.00;66.30;;;;;;6178215;23;20015;-74
2022/03/18 06:14:23;;;;;;;12.50;4.20;;;23.00;66.60;;;;;;6177459;23;19996;-74
2022/03/18 06:16:51;;;;;;;16.80;5.03;;;23.00;66.70;;;;;;6178440;23;20084;-73
2022/03/18 06:19:18;;;;;;;21.80;4.95;;;23.00;67.00;;;;;;6177249;23;20005;-73
2022/03/18 06:21:45;;;;;;;16.42;4.38;;;23.00;67.00;;;;;;6178764;23;20024;-73
2022/03/18 06:24:12;;;;;;;13.52;3.35;;;23.00;67.10;;;;;;6177386;23;20427;-73
2022/03/18 06:26:39;;;;;;;16.35;3.83;;;23.00;67.40;;;;;;6178133;23;20080;-73
2022/03/18 06:29:07;;;;;;;11.10;4.25;;;23.00;67.70;;;;;;6178251;23;20009;-73
2022/03/18 06:31:34;;;;;;;19.67;4.40;;;23.10;67.70;;;;;;6177403;23;20004;-73
2022/03/18 06:34:01;;;;;;;11.32;3.72;;;23.10;67.80;;;;;;6178099;23;20013;-73
2022/03/18 06:36:28;;;;;;;15.80;4.13;;;23.20;68.10;;;;;;6177107;23;19997;-73
2022/03/18 06:38:55;;;;;;;11.50;3.53;;;23.20;68.30;;;;;;6178332;23;20420;-73
2022/03/18 06:41:22;;;;;;;9.43;3.83;;;23.20;68.40;;;;;;6177309;23;20333;-73
2022/03/18 06:43:50;;;;;;;14.65;3.78;;;23.20;68.50;;;;;;6178143;23;20004;-74
2022/03/18 06:46:17;;;;;;;12.63;3.22;;;23.20;68.50;;;;;;6177966;23;20001;-74
2022/03/18 06:48:44;;;;;;;16.77;4.60;;;23.30;68.60;;;;;;6177651;23;20377;-74
2022/03/18 06:51:11;;;;;;;13.20;4.32;;;23.30;68.60;;;;;;6178293;23;20001;-74
2022/03/18 06:53:38;;;;;;;15.70;2.85;;;23.40;68.70;;;;;;6176955;23;20021;-74
2022/03/18 06:56:05;;;;;;;15.50;4.65;;;23.40;68.40;;;;;;6178176;23;20008;-73
2022/03/18 06:58:32;;;;;;;19.08;4.15;;;23.50;68.40;;;;;;6176883;23;20008;-73
2022/03/18 07:00:59;;;;;;;13.75;3.58;;;23.50;68.30;;;;;;6178166;23;20009;-73
2022/03/18 07:03:25;;;;;;;14.55;3.38;;;23.60;68.30;;;;;;6177487;23;20592;-74
2022/03/18 07:05:52;;;;;;;11.48;3.40;;;23.60;68.50;;;;;;6177628;23;20334;-74
2022/03/18 07:08:19;;;;;;;10.73;2.97;;;23.60;68.40;;;;;;6178565;23;20002;-74
2022/03/18 07:10:45;;;;;;;15.02;4.07;;;23.60;68.40;;;;;;6177003;23;19997;-73
2022/03/18 07:13:12;;;;;;;15.13;3.55;;;23.70;68.50;;;;;;6178156;23;20009;-73
2022/03/18 07:15:38;;;;;;;20.45;5.57;;;23.70;68.00;;;;;;6176992;23;19997;-73
2022/03/18 07:18:05;;;;;;;13.38;4.72;;;23.70;68.00;;;;;;6178426;23;20004;-73
2022/03/18 07:20:34;;;;;;;17.88;4.15;;;23.70;68.00;;;;;;6177215;23;20016;-73
2022/03/18 07:23:12;;;;;;;14.25;3.70;;;23.80;68.00;;;;;;6177760;23;20001;-73
2022/03/18 07:25:44;;;;;;;16.65;3.70;;;23.80;67.80;;;;;;6177976;23;20001;-73
2022/03/18 07:28:12;;;;;;;11.68;3.67;;;23.80;67.90;;;;;;6177183;23;20023;-73
2022/03/18 07:30:40;;;;;;;11.75;3.63;;;23.80;68.30;;;;;;6178062;23;19997;-73
2022/03/18 07:33:08;;;;;;;9.57;3.33;;;23.90;67.30;;;;;;6176678;23;20017;-73
2022/03/18 07:35:35;;;;;;;12.73;3.20;;;23.90;67.20;;;;;;6178215;23;20160;-73
2022/03/18 07:38:05;;;;;;;11.57;3.25;;;24.00;67.20;;;;;;6177819;23;20008;-73
2022/03/18 07:40:31;;;;;;;15.55;4.43;;;24.00;67.10;;;;;;6177127;23;20039;-73
2022/03/18 07:42:59;;;;;;;9.65;2.53;;;24.10;67.00;;;;;;6178249;23;20001;-73
2022/03/18 07:45:31;;;;;;;9.60;3.42;;;24.10;66.90;;;;;;6176982;23;20012;-73
2022/03/18 07:48:00;;;;;;;17.05;4.53;;;24.20;66.80;;;;;;6178044;23;20002;-73
2022/03/18 07:50:28;;;;;;;10.52;3.85;;;24.20;66.50;;;;;;6176806;23;20001;-72
2022/03/18 07:52:57;;;;;;;15.43;3.58;;;24.20;66.30;;;;;;6178078;23;20012;-73
2022/03/18 07:55:26;;;;;;;14.40;3.85;;;24.20;66.40;;;;;;6177773;23;20084;-72
2022/03/18 07:57:53;;;;;;;7.28;2.80;;;24.30;67.00;;;;;;6176944;23;20511;-73
2022/03/18 08:00:21;;;;;;;10.60;2.92;;;24.30;65.90;;;;;;6178318;23;20009;-73
2022/03/18 08:02:49;;;;;;;10.93;3.72;;;24.30;65.80;;;;;;6177267;23;20007;-73
2022/03/18 08:05:17;;;;;;;13.48;3.53;;;24.40;66.10;;;;;;6177792;23;20028;-73
2022/03/18 08:07:44;;;;;;;14.70;4.22;;;24.40;65.80;;;;;;6176699;23;19997;-72
2022/03/18 08:10:11;;;;;;;21.13;5.45;;;24.40;65.50;;;;;;6177710;23;20405;-73
2022/03/18 08:12:40;;;;;;;7.55;2.45;;;24.50;66.10;;;;;;6177749;23;20420;-73
2022/03/18 08:15:12;;;;;;;16.67;4.80;;;24.50;66.20;;;;;;6176895;23;19997;-73
2022/03/18 08:17:40;;;;;;;12.95;3.30;;;24.60;66.00;;;;;;6177784;23;20012;-73
2022/03/18 08:20:12;;;;;;;16.17;3.97;;;24.60;65.90;;;;;;6176699;23;20099;-73
2022/03/18 08:22:39;;;;;;;12.13;2.90;;;24.60;65.70;;;;;;6177755;23;19993;-72
2022/03/18 08:25:08;;;;;;;8.73;3.20;;;24.70;65.10;;;;;;6176631;23;20076;-72
2022/03/18 08:27:34;;;;;;;8.43;3.53;;;24.70;64.90;;;;;;6177488;23;20005;-73
2022/03/18 08:30:03;;;;;;;6.47;3.33;;;24.80;64.90;;;;;;6178171;23;20007;-73
2022/03/18 08:32:29;;;;;;;10.30;3.00;;;24.80;65.30;;;;;;6176525;23;20370;-73
2022/03/18 08:34:57;;;;;;;11.00;2.80;;;24.80;65.50;;;;;;6177583;23;20001;-73
2022/03/18 08:40:10;;;;;;;7.20;3.15;;;24.90;66.20;;;;;;6178760;23;20086;-73
2022/03/18 08:42:37;;;;;;;14.27;3.45;;;24.90;65.60;;;;;;6178072;23;20005;-73
2022/03/18 08:45:05;;;;;;;25.25;5.43;;;24.90;66.30;;;;;;6178199;23;20001;-72
2022/03/18 08:47:32;;;;;;;12.65;3.05;;;24.90;66.10;;;;;;6178873;23;20023;-72
2022/03/18 08:49:58;;;;;;;10.68;2.50;;;25.00;66.00;;;;;;6177873;23;20043;-72
2022/03/18 08:52:25;;;;;;;5.82;2.97;;;25.00;65.60;;;;;;6179069;23;20001;-72
2022/03/18 08:54:51;;;;;;;7.78;2.97;;;25.00;65.50;;;;;;6177508;23;20001;-73
2022/03/18 08:57:18;;;;;;;5.13;2.13;;;25.00;65.90;;;;;;6178801;23;20001;-73
2022/03/18 08:59:44;;;;;;;6.22;2.83;;;25.00;66.30;;;;;;6177758;23;20424;-73
2022/03/18 09:02:11;;;;;;;7.72;2.85;;;25.00;67.20;;;;;;6178196;23;20001;-73
2022/03/18 09:04:37;;;;;;;8.75;3.72;;;25.10;66.50;;;;;;6178956;23;20008;-72
2022/03/18 09:07:04;;;;;;;7.55;2.53;;;25.10;66.20;;;;;;6177563;23;20005;-73
2022/03/18 09:09:31;;;;;;;6.80;3.65;;;25.10;66.30;;;;;;6178720;23;20415;-73
2022/03/18 09:11:57;;;;;;;8.68;4.72;;;25.10;66.40;;;;;;6177569;23;20063;-73
2022/03/18 09:14:24;;;;;;;9.93;4.65;;;25.20;66.60;;;;;;6179003;23;20077;-73
2022/03/18 09:16:50;;;;;;;8.35;4.40;;;25.20;66.70;;;;;;6177550;23;20005;-73
2022/03/18 09:19:17;;;;;;;5.90;4.00;;;25.20;66.70;;;;;;6178855;23;20439;-72
2022/03/18 09:21:44;;;;;;;11.45;6.03;;;25.30;66.80;;;;;;6282302;22;20324;-72
2022/03/18 09:24:11;;;;;;;12.70;4.88;;;25.30;66.50;;;;;;6177795;23;19997;-73
2022/03/18 09:26:37;;;;;;;8.50;3.70;;;25.40;66.40;;;;;;6178596;23;20090;-73
2022/03/18 09:29:04;;;;;;;14.68;4.18;;;25.40;66.20;;;;;;6177417;23;20005;-73
2022/03/18 09:31:30;;;;;;;12.23;3.22;;;25.50;66.20;;;;;;6178867;23;20605;-73
2022/03/18 09:33:58;;;;;;;7.60;3.05;;;25.60;66.10;;;;;;6177301;23;20009;-72
2022/03/18 09:36:25;;;;;;;6.65;3.47;;;25.60;64.90;;;;;;6178683;23;20001;-73
2022/03/18 09:38:51;;;;;;;14.77;4.03;;;25.70;64.80;;;;;;6178630;23;20005;-72
2022/03/18 09:41:18;;;;;;;10.70;4.47;;;25.80;65.00;;;;;;6177752;23;20009;-73
2022/03/18 09:43:45;;;;;;;13.52;4.50;;;26.00;65.00;;;;;;6178622;23;20005;-73
2022/03/18 09:46:14;;;;;;;8.45;4.50;;;26.00;64.70;;;;;;6177610;23;20434;-73
2022/03/18 09:48:41;;;;;;;10.15;4.18;;;26.20;64.30;;;;;;6178201;23;20002;-73
2022/03/18 09:51:08;;;;;;;17.17;5.38;;;26.20;64.00;;;;;;6177316;23;20002;-73
2022/03/18 09:53:35;;;;;;;13.73;5.10;;;26.30;63.90;;;;;;6178430;23;19997;-73
2022/03/18 09:56:03;;;;;;;17.10;4.70;;;26.30;64.20;;;;;;6177829;23;20047;-72
2022/03/18 09:58:30;;;;;;;16.17;5.00;;;26.40;64.00;;;;;;6177815;23;20071;-73
2022/03/18 10:01:01;;;;;;;15.35;5.05;;;26.40;64.20;;;;;;6178430;23;20625;-73
2022/03/18 10:03:44;;;;;;;14.95;6.15;;;26.40;62.90;;;;;;6177531;23;20001;-73
2022/03/18 10:06:11;;;;;;;17.83;4.85;;;26.50;62.50;;;;;;6178510;23;20257;-73
2022/03/18 10:08:44;;;;;;;9.88;4.45;;;26.60;62.40;;;;;;6177158;23;20001;-73
2022/03/18 10:11:26;;;;;;;12.70;4.57;;;26.60;62.40;;;;;;6178103;23;20443;-73
2022/03/18 10:14:16;;;;;;;12.85;4.40;;;26.60;61.90;;;;;;6178412;23;20492;-73
2022/03/18 10:16:48;;;;;;;9.48;3.67;;;26.70;61.50;;;;;;6185407;22;20016;-73
2022/03/18 10:19:24;;;;;;;10.35;3.75;;;26.80;61.50;;;;;;6178357;23;20012;-73
2022/03/18 10:21:51;;;;;;;14.45;4.03;;;26.80;61.20;;;;;;6177632;23;20017;-72
2022/03/18 10:24:19;;;;;;;17.73;4.50;;;26.90;61.20;;;;;;6177885;23;20001;-73
2022/03/18 10:26:45;;;;;;;11.90;4.35;;;26.90;61.50;;;;;;6179002;23;20001;-73
2022/03/18 10:29:13;;;;;;;14.40;4.05;;;27.00;61.80;;;;;;6177120;23;20051;-73
2022/03/18 10:31:45;;;;;;;9.32;4.15;;;27.10;61.60;;;;;;6178271;23;20096;-73
2022/03/18 10:37:04;;;;;;;13.02;4.32;;;27.30;60.10;;;;;;6178461;23;20024;-73
2022/03/18 10:39:42;;;;;;;13.38;3.70;;;27.40;59.90;;;;;;6178015;23;20004;-73
2022/03/18 10:42:18;;;;;;;7.80;3.92;;;27.50;60.30;;;;;;6177054;23;20017;-73
2022/03/18 10:44:52;;;;;;;8.98;3.47;;;27.60;59.80;;;;;;6178335;23;20067;-73
2022/03/18 10:47:31;;;;;;;11.75;3.20;;;27.70;59.20;;;;;;6177243;23;20005;-73
2022/03/18 10:50:32;;;;;;;8.70;3.22;;;27.80;58.70;;;;;;6178240;23;20005;-73
2022/03/18 10:53:07;;;;;;;14.02;4.07;;;27.80;58.60;;;;;;6240539;23;20004;-73
2022/03/18 10:55:36;;;;;;;10.30;3.15;;;27.90;58.50;;;;;;6185797;22;20009;-73
2022/03/18 10:58:12;;;;;;;11.40;2.50;;;27.90;58.20;;;;;;6178227;23;20329;-73
2022/03/18 11:00:45;;;;;;;11.85;3.45;;;28.00;57.50;;;;;;6176547;23;20013;-73
2022/03/18 11:03:13;;;;;;;13.45;3.47;;;28.10;58.70;;;;;;6177983;23;20025;-73
2022/03/18 11:05:41;;;;;;;15.60;4.15;;;28.10;58.00;;;;;;6178245;23;20027;-72
2022/03/18 11:08:11;;;;;;;10.88;3.53;;;28.10;58.10;;;;;;6176871;23;20068;-73
2022/03/18 11:13:52;;;;;;;10.95;2.80;;;28.20;57.00;;;;;;6177320;23;20016;-73
2022/03/18 11:16:31;;;;;;;12.32;3.30;;;28.30;56.70;;;;;;6177457;23;20000;-73
2022/03/18 11:19:10;;;;;;;7.85;3.53;;;28.40;56.80;;;;;;6178329;23;20009;-73
2022/03/18 11:21:39;;;;;;;14.95;3.60;;;28.40;56.70;;;;;;6177087;23;20013;-73
2022/03/18 11:24:11;;;;;;;8.07;2.83;;;28.50;56.00;;;;;;6178190;23;20084;-74
2022/03/18 11:26:47;;;;;;;9.23;3.95;;;28.60;55.60;;;;;;6177303;23;20059;-74
2022/03/18 11:29:19;;;;;;;12.05;4.45;;;28.70;55.40;;;;;;6177373;23;20001;-74
2022/03/18 11:32:15;;;;;;;11.63;3.50;;;28.80;55.60;;;;;;6178203;23;20442;-74
2022/03/18 11:34:58;;;;;;;12.68;4.18;;;28.80;55.70;;;;;;6297919;22;20050;-74
2022/03/18 11:37:25;;;;;;;13.75;3.42;;;28.90;56.00;;;;;;6304147;22;20007;-73
2022/03/18 11:40:12;;;;;;;18.70;3.78;;;28.90;55.90;;;;;;6303892;22;20074;-73
2022/03/18 11:42:38;;;;;;;10.20;4.32;;;29.00;55.80;;;;;;6302787;22;20007;-73
2022/03/18 11:45:06;;;;;;;20.45;5.55;;;29.00;55.80;;;;;;6304263;22;19995;-73
2022/03/18 11:47:33;;;;;;;9.32;3.65;;;29.00;56.30;;;;;;6302903;22;20316;-74
2022/03/18 11:50:02;;;;;;;10.43;3.42;;;29.00;56.60;;;;;;6304507;22;20076;-73
2022/03/18 11:52:29;;;;;;;7.75;3.42;;;29.10;56.80;;;;;;6303491;22;20322;-74
2022/03/18 11:55:00;;;;;;;13.85;4.90;;;29.00;56.90;;;;;;6304055;22;19999;-74
2022/03/18 11:57:45;;;;;;;15.48;4.13;;;29.00;57.20;;;;;;6304242;22;20030;-74
2022/03/18 12:00:36;;;;;;;18.33;4.50;;;29.00;57.30;;;;;;6302781;22;20011;-73
2022/03/18 12:03:04;;;;;;;13.93;4.63;;;28.90;57.10;;;;;;6289586;22;20361;-73
2022/03/18 12:05:33;;;;;;;12.25;3.75;;;28.80;57.30;;;;;;6303413;22;20014;-73
2022/03/18 12:08:00;;;;;;;16.08;3.63;;;28.70;57.40;;;;;;6303444;22;19991;-74
2022/03/18 12:10:35;;;;;;;6.95;2.60;;;28.60;57.70;;;;;;6304113;22;20449;-74
2022/03/18 12:13:03;;;;;;;12.88;3.75;;;28.50;57.90;;;;;;6302635;22;20013;-74
2022/03/18 12:15:31;;;;;;;15.95;3.90;;;28.50;57.90;;;;;;6304097;22;20468;-73
2022/03/18 12:17:58;;;;;;;11.07;3.67;;;28.50;58.20;;;;;;6302897;22;19999;-74
2022/03/18 12:20:34;;;;;;;11.25;3.40;;;28.50;58.30;;;;;;6303887;22;20377;-73
2022/03/18 12:23:05;;;;;;;10.43;3.67;;;28.50;58.70;;;;;;6303916;22;20004;-73
2022/03/18 12:25:32;;;;;;;14.13;3.97;;;28.40;58.70;;;;;;6303105;22;20330;-73
2022/03/18 12:27:59;;;;;;;12.32;4.10;;;28.50;58.70;;;;;;6303871;22;20074;-73
2022/03/18 12:30:29;;;;;;;12.13;4.97;;;28.40;58.70;;;;;;6302645;22;20030;-73
2022/03/18 12:33:04;;;;;;;11.60;3.45;;;28.40;59.10;;;;;;6273070;22;20383;-73
2022/03/18 12:35:34;;;;;;;10.88;3.55;;;28.40;59.70;;;;;;6176767;23;20005;-73
2022/03/18 12:38:08;;;;;;;18.60;4.47;;;28.40;59.70;;;;;;6280951;22;20375;-73
2022/03/18 12:40:40;;;;;;;15.98;4.43;;;28.50;59.60;;;;;;6177772;23;20005;-73
2022/03/18 12:43:07;;;;;;;16.13;4.32;;;28.50;59.50;;;;;;6176717;23;20005;-74
2022/03/18 12:45:38;;;;;;;10.10;3.47;;;28.50;59.70;;;;;;6177551;23;20002;-74
2022/03/18 12:48:13;;;;;;;15.85;4.50;;;28.40;59.90;;;;;;6176134;23;20004;-74
2022/03/18 12:50:44;;;;;;;14.50;4.50;;;28.40;60.00;;;;;;6177819;22;20074;-73
2022/03/18 12:53:16;;;;;;;14.93;5.32;;;28.40;60.20;;;;;;6177051;23;20001;-73
2022/03/18 12:55:44;;;;;;;12.75;3.33;;;28.30;60.30;;;;;;6176583;23;20011;-73
2022/03/18 12:58:11;;;;;;;17.83;4.40;;;28.30;60.30;;;;;;6177508;23;20058;-73
2022/03/18 13:00:43;;;;;;;16.13;3.60;;;28.30;60.30;;;;;;6176047;23;20134;-73
2022/03/18 13:03:19;;;;;;;16.85;3.42;;;28.30;61.00;;;;;;6177357;23;19997;-73
2022/03/18 13:05:52;;;;;;;17.30;3.88;;;28.30;60.60;;;;;;6176566;23;20005;-74
2022/03/18 13:08:29;;;;;;;11.07;3.67;;;28.20;60.60;;;;;;6176925;23;20005;-74
2022/03/18 13:10:57;;;;;;;10.93;4.05;;;28.20;60.70;;;;;;6177720;23;20005;-73